Columbus, Ohio
Traffic Map
Current Weather Conditions
Columbus, Ohio
Overcast Light Rain
Overcast
16°
Feels Like: 16°
Wind Chill: 16° Ceiling: 7500
Heat Index: 16° Visibility: 8mi
Dew Point: 13° Wind: 7mph
Humidity: 83% Direction: 180° (S)
Pressure: 29.83in Gusts: 0mph
Raw Report DataKCMH 280439Z 18006KT 8SM -RA FEW019 SCT038 OVC075 16/13 A2983 RMK AO2 P0001 T01560128
Traffic Incident Summary
Active as of:
Severity:
Category:
InformationThere was an issue retrieving the traffic information for this location. Please try a different location or try again shortly.
Advertisements
Track Severe Weather on mobile